createdAt,value
2019-05-01T00:00:22.020Z,91.10
2019-05-01T00:03:08.133Z,91.30
2019-05-01T00:05:46.900Z,91.40
2019-05-01T00:08:15.721Z,91.50
2019-05-01T00:10:43.980Z,92.10
2019-05-01T00:13:12.228Z,92.10
2019-05-01T00:15:40.476Z,92.00
2019-05-01T00:18:08.736Z,92.00
2019-05-01T00:20:36.980Z,92.00
2019-05-01T00:23:05.228Z,92.00
2019-05-01T00:25:33.487Z,92.40
2019-05-01T00:28:01.750Z,93.20
2019-05-01T00:30:31.720Z,93.40
2019-05-01T00:32:59.965Z,93.50
2019-05-01T00:35:28.236Z,93.70
2019-05-01T00:37:56.480Z,93.80
2019-05-01T00:40:24.731Z,94.00
2019-05-01T00:42:52.996Z,94.20
2019-05-01T00:45:21.290Z,94.60
2019-05-01T00:47:49.549Z,95.30
2019-05-01T00:50:17.786Z,95.80
2019-05-01T00:52:46.037Z,96.30
2019-05-01T00:55:32.074Z,97.10
2019-05-01T00:58:11.212Z,97.60
2019-05-01T01:00:44.064Z,98.20
2019-05-01T01:03:12.624Z,98.40
2019-05-01T01:05:40.902Z,99.20
2019-05-01T01:08:09.165Z,99.30
2019-05-01T01:10:37.402Z,99.20
2019-05-01T01:13:05.657Z,99.60
2019-05-01T01:15:33.924Z,99.60
2019-05-01T01:18:02.188Z,99.60
2019-05-01T01:20:30.428Z,99.40
2019-05-01T01:22:58.688Z,99.40
2019-05-01T01:25:26.939Z,99.50
2019-05-01T01:27:55.184Z,99.40
2019-05-01T01:30:23.441Z,99.40
2019-05-01T01:32:51.693Z,99.40
2019-05-01T01:35:20.216Z,99.40
2019-05-01T01:37:48.464Z,99.40
2019-05-01T01:40:16.713Z,99.40
2019-05-01T01:42:46.611Z,99.70
2019-05-01T01:45:28.719Z,99.60
2019-05-01T01:48:10.453Z,99.70
2019-05-01T01:50:40.648Z,99.90
2019-05-01T01:53:08.974Z,99.70
2019-05-01T01:55:38.064Z,99.50
2019-05-01T01:58:06.601Z,99.20
2019-05-01T02:00:53.040Z,98.60
2019-05-01T02:03:22.931Z,98.70
2019-05-01T02:05:51.173Z,98.70
2019-05-01T02:08:19.434Z,98.80
2019-05-01T02:10:47.677Z,98.90
2019-05-01T02:13:15.936Z,99.20
2019-05-01T02:15:44.189Z,99.10
2019-05-01T02:18:12.444Z,98.30
2019-05-01T02:20:40.692Z,97.10
2019-05-01T02:23:08.953Z,97.10
2019-05-01T02:25:38.836Z,97.70
2019-05-01T02:28:25.674Z,98.10
2019-05-01T02:31:07.822Z,98.40
2019-05-01T02:33:40.583Z,98.50
2019-05-01T02:36:08.825Z,98.60
2019-05-01T02:38:37.560Z,99.00
2019-05-01T02:41:06.481Z,98.90
2019-05-01T02:43:36.177Z,98.40
2019-05-01T02:46:04.426Z,98.00
2019-05-01T02:48:33.207Z,98.00
2019-05-01T02:51:01.581Z,98.00
2019-05-01T02:53:29.865Z,98.10
2019-05-01T02:56:16.410Z,97.90
2019-05-01T02:58:44.664Z,97.80
2019-05-01T03:01:14.442Z,97.50
2019-05-01T03:03:43.053Z,97.10
2019-05-01T03:06:11.460Z,97.00
2019-05-01T03:08:39.721Z,96.90
2019-05-01T03:11:07.961Z,96.80
2019-05-01T03:13:36.218Z,96.70
2019-05-01T03:16:04.536Z,97.00
2019-05-01T03:18:37.321Z,97.00
2019-05-01T03:21:13.241Z,96.50
2019-05-01T03:23:43.138Z,96.70
2019-05-01T03:26:11.386Z,96.60
2019-05-01T03:28:39.640Z,96.70
2019-05-01T03:31:07.894Z,97.20
2019-05-01T03:33:36.226Z,97.20
2019-05-01T03:36:04.548Z,97.10
2019-05-01T03:38:32.797Z,96.90
2019-05-01T03:41:22.085Z,97.40
2019-05-01T03:43:50.920Z,97.70
2019-05-01T03:46:19.269Z,98.20
2019-05-01T03:48:47.577Z,97.90
2019-05-01T03:51:15.830Z,97.70
2019-05-01T03:53:44.081Z,97.80
2019-05-01T03:56:12.332Z,98.00
2019-05-01T03:58:40.590Z,98.40
2019-05-01T04:01:10.469Z,98.40
2019-05-01T04:03:46.580Z,98.40
2019-05-01T04:06:14.826Z,98.30
2019-05-01T04:08:43.159Z,98.60
2019-05-01T04:11:11.410Z,98.60
2019-05-01T04:13:40.106Z,98.50
2019-05-01T04:16:08.729Z,98.40
2019-05-01T04:18:36.988Z,98.30
2019-05-01T04:21:05.777Z,98.30
2019-05-01T04:23:34.028Z,98.40
2019-05-01T04:26:02.277Z,98.60
2019-05-01T04:28:35.112Z,98.70
2019-05-01T04:31:41.215Z,98.50
2019-05-01T04:34:18.212Z,98.40
2019-05-01T04:36:48.101Z,98.30
2019-05-01T04:39:16.360Z,98.50
2019-05-01T04:41:44.600Z,98.50
2019-05-01T04:44:12.862Z,98.20
2019-05-01T04:46:41.100Z,98.00
2019-05-01T04:49:09.357Z,97.50
2019-05-01T04:51:37.607Z,97.30
2019-05-01T04:54:05.857Z,96.60
2019-05-01T04:56:34.108Z,96.10
2019-05-01T04:59:02.356Z,95.70
2019-05-01T05:01:32.269Z,94.40
2019-05-01T05:04:00.528Z,94.20
2019-05-01T05:06:28.773Z,93.90
2019-05-01T05:08:57.028Z,93.30
2019-05-01T05:11:27.185Z,93.80
2019-05-01T05:14:15.312Z,94.20
2019-05-01T05:17:01.456Z,94.60
2019-05-01T05:19:29.800Z,94.50
2019-05-01T05:21:58.108Z,91.90
2019-05-01T05:24:26.373Z,92.10
2019-05-01T05:26:54.616Z,92.60
2019-05-01T05:29:22.881Z,92.50
2019-05-01T05:31:51.767Z,93.20
2019-05-01T05:34:20.327Z,93.00
2019-05-01T05:36:49.634Z,92.30
2019-05-01T05:39:28.264Z,91.90
2019-05-01T05:41:56.511Z,91.50
2019-05-01T05:44:24.937Z,92.20
2019-05-01T05:46:53.192Z,90.50
2019-05-01T05:49:21.444Z,90.20
2019-05-01T05:51:51.333Z,89.60
2019-05-01T05:54:31.410Z,88.30
2019-05-01T05:57:04.113Z,86.90
2019-05-01T05:59:34.009Z,85.10
2019-05-01T06:02:07.385Z,82.80
2019-05-01T06:04:37.411Z,82.30
2019-05-01T06:07:07.305Z,81.80
2019-05-01T06:09:37.205Z,79.80
2019-05-01T06:12:12.888Z,78.50
2019-05-01T06:14:51.588Z,77.90
2019-05-01T06:17:23.782Z,77.50
2019-05-01T06:19:56.232Z,75.40
2019-05-01T06:22:28.902Z,75.30
2019-05-01T06:24:58.811Z,73.30
2019-05-01T06:27:27.068Z,73.30
2019-05-01T06:29:55.396Z,72.60
2019-05-01T06:32:23.653Z,70.20
2019-05-01T06:34:51.917Z,69.50
2019-05-01T06:37:20.848Z,65.50
2019-05-01T06:39:50.170Z,63.40
2019-05-01T06:42:19.684Z,61.50
2019-05-01T06:44:49.585Z,63.10
2019-05-01T06:47:19.476Z,61.20
2019-05-01T06:49:49.828Z,58.30
2019-05-01T06:52:24.985Z,54.30
2019-05-01T06:54:53.622Z,56.30
2019-05-01T06:57:22.257Z,57.60
2019-05-01T06:59:50.528Z,58.60
2019-05-01T07:02:18.808Z,59.80
2019-05-01T07:04:47.592Z,61.90
2019-05-01T07:07:25.228Z,61.70
2019-05-01T07:09:49.203Z,60.80
2019-05-01T07:12:17.466Z,58.50
2019-05-01T07:14:50.454Z,56.50
2019-05-01T07:17:15.717Z,53.50
2019-05-01T07:19:57.585Z,50.00
2019-05-01T07:22:25.841Z,47.70
2019-05-01T07:24:54.156Z,49.00
2019-05-01T07:27:23.669Z,47.70
2019-05-01T07:29:54.042Z,45.40
2019-05-01T07:32:22.308Z,44.20
2019-05-01T07:34:50.564Z,47.20
2019-05-01T07:37:20.914Z,46.50
2019-05-01T07:39:49.811Z,49.30
2019-05-01T07:42:29.576Z,50.80
2019-05-01T07:45:18.841Z,50.10
2019-05-01T07:47:48.732Z,49.00
2019-05-01T07:50:17.674Z,45.30
2019-05-01T07:52:47.718Z,42.50
2019-05-01T07:55:18.191Z,40.30
2019-05-01T07:57:45.965Z,41.00
2019-05-01T08:00:28.056Z,41.70
2019-05-01T08:02:56.345Z,41.60
2019-05-01T08:05:24.596Z,41.10
2019-05-01T08:07:52.868Z,38.50
2019-05-01T08:10:25.414Z,40.10
2019-05-01T08:12:55.330Z,39.20
2019-05-01T08:15:22.509Z,37.40
2019-05-01T08:17:53.207Z,38.10
2019-05-01T08:20:33.158Z,38.70
2019-05-01T08:23:01.416Z,38.70
2019-05-01T08:25:33.258Z,39.50
2019-05-01T08:28:01.322Z,40.40
2019-05-01T08:30:34.185Z,41.70
2019-05-01T08:35:49.478Z,43.30
2019-05-01T08:38:17.752Z,45.70
2019-05-01T08:40:46.011Z,47.20
2019-05-01T08:43:18.051Z,50.10
2019-05-01T08:46:02.272Z,50.10
2019-05-01T08:48:35.885Z,50.90
2019-05-01T08:51:02.144Z,52.60
2019-05-01T08:53:30.409Z,52.90
2019-05-01T08:55:58.665Z,53.30
2019-05-01T08:58:26.938Z,53.90
2019-05-01T09:00:55.197Z,54.60
2019-05-01T09:03:23.490Z,54.00
2019-05-01T09:05:52.136Z,54.40
2019-05-01T09:08:21.742Z,55.10
2019-05-01T09:10:54.376Z,54.50
2019-05-01T09:13:23.703Z,54.80
2019-05-01T09:15:49.966Z,54.60
2019-05-01T09:18:18.941Z,55.00
2019-05-01T09:20:49.035Z,55.30
2019-05-01T09:23:17.389Z,57.20
2019-05-01T09:25:53.265Z,54.30
2019-05-01T09:28:23.174Z,54.10
2019-05-01T09:33:43.086Z,52.90
2019-05-01T09:36:11.410Z,54.00
2019-05-01T09:38:39.668Z,53.60
2019-05-01T09:41:07.928Z,54.20
2019-05-01T09:43:37.088Z,53.10
2019-05-01T09:46:05.539Z,54.20
2019-05-01T09:48:33.817Z,53.70
2019-05-01T09:51:06.821Z,53.10
2019-05-01T09:53:41.170Z,55.20
2019-05-01T09:56:17.260Z,53.30
2019-05-01T09:58:45.593Z,52.90
2019-05-01T10:01:13.894Z,53.90
2019-05-01T10:03:44.788Z,53.30
2019-05-01T10:06:12.744Z,52.90
2019-05-01T10:08:42.172Z,52.90
2019-05-01T10:11:10.498Z,52.60
2019-05-01T10:13:38.828Z,51.40
2019-05-01T10:16:07.098Z,50.30
2019-05-01T10:18:35.365Z,53.70
2019-05-01T10:21:03.625Z,53.40
2019-05-01T10:23:31.888Z,52.90
2019-05-01T10:26:01.788Z,54.10
2019-05-01T10:31:29.216Z,55.40
2019-05-01T10:34:07.546Z,54.40
2019-05-01T10:36:39.300Z,51.90
2019-05-01T10:39:08.117Z,52.00
2019-05-01T10:41:36.385Z,52.20
2019-05-01T10:44:04.657Z,52.20
2019-05-01T10:46:32.913Z,52.40
2019-05-01T10:49:01.203Z,52.80
2019-05-01T10:51:29.449Z,53.30
2019-05-01T10:53:57.801Z,52.40
2019-05-01T10:56:26.068Z,53.90
2019-05-01T10:58:54.332Z,52.20
2019-05-01T11:01:45.540Z,51.90
2019-05-01T11:04:13.816Z,52.00
2019-05-01T11:06:42.175Z,51.90
2019-05-01T11:09:10.510Z,51.50
2019-05-01T11:11:38.822Z,50.60
2019-05-01T11:14:07.273Z,50.40
2019-05-01T11:16:35.793Z,51.00
2019-05-01T11:19:04.056Z,51.70
2019-05-01T11:21:32.379Z,50.20
2019-05-01T11:24:00.701Z,50.20
2019-05-01T11:26:29.116Z,51.10
2019-05-01T11:28:57.709Z,51.10
2019-05-01T11:31:33.780Z,51.10
2019-05-01T11:37:13.463Z,49.70
2019-05-01T11:39:59.393Z,49.90
2019-05-01T11:42:27.652Z,48.90
2019-05-01T11:44:55.914Z,48.60
2019-05-01T11:47:24.160Z,48.50
2019-05-01T11:49:52.606Z,49.00
2019-05-01T11:52:20.854Z,48.00
2019-05-01T11:54:49.128Z,47.70
2019-05-01T11:57:17.462Z,48.70
2019-05-01T11:59:45.721Z,48.60
2019-05-01T12:02:17.046Z,49.50
2019-05-01T12:04:45.312Z,46.20
2019-05-01T12:07:13.596Z,47.90
2019-05-01T12:09:44.681Z,47.80
2019-05-01T12:12:14.576Z,46.00
2019-05-01T12:14:43.049Z,45.50
2019-05-01T12:17:12.959Z,45.00
2019-05-01T12:19:41.272Z,47.10
2019-05-01T12:22:09.596Z,47.20
2019-05-01T12:24:37.940Z,46.80
2019-05-01T12:27:06.220Z,47.70
2019-05-01T12:29:34.617Z,49.00
2019-05-01T12:32:03.048Z,52.00
2019-05-01T12:34:31.482Z,50.50
2019-05-01T12:37:04.093Z,49.60
2019-05-01T12:39:32.539Z,48.00
2019-05-01T12:42:02.563Z,47.90
2019-05-01T12:44:30.876Z,48.40
2019-05-01T12:47:03.635Z,48.50
2019-05-01T12:49:32.408Z,52.10
2019-05-01T12:52:10.247Z,50.10
2019-05-01T12:54:33.932Z,51.40
2019-05-01T12:57:02.877Z,52.60
2019-05-01T12:59:31.129Z,52.60
2019-05-01T13:01:59.479Z,54.80
2019-05-01T13:04:27.724Z,53.50
2019-05-01T13:06:56.855Z,50.80
2019-05-01T13:09:25.111Z,51.80
2019-05-01T13:11:53.369Z,53.60
2019-05-01T13:14:21.626Z,55.80
2019-05-01T13:16:49.938Z,54.20
2019-05-01T13:19:18.241Z,53.30
2019-05-01T13:21:46.557Z,53.50
2019-05-01T13:24:14.812Z,50.80
2019-05-01T13:26:47.413Z,51.30
2019-05-01T13:29:23.541Z,51.50
2019-05-01T13:34:42.713Z,50.20
2019-05-01T13:37:10.965Z,49.70
2019-05-01T13:39:39.211Z,51.00
2019-05-01T13:42:09.117Z,51.00
2019-05-01T13:44:37.692Z,50.60
2019-05-01T13:47:05.946Z,49.00
2019-05-01T13:49:34.318Z,45.30
2019-05-01T13:52:02.576Z,45.30
2019-05-01T13:54:30.834Z,47.90
2019-05-01T13:56:59.100Z,46.00
2019-05-01T13:59:27.354Z,44.20
2019-05-01T14:01:55.652Z,44.90
2019-05-01T14:04:24.668Z,44.70
2019-05-01T14:06:52.928Z,46.30
2019-05-01T14:09:22.824Z,46.50
2019-05-01T14:11:51.089Z,47.70
2019-05-01T14:14:19.369Z,48.20
2019-05-01T14:16:47.679Z,48.20
2019-05-01T14:19:15.928Z,47.10
2019-05-01T14:21:45.833Z,48.90
2019-05-01T14:27:08.868Z,47.50
2019-05-01T14:29:37.123Z,47.20
2019-05-01T14:32:05.386Z,50.20
2019-05-01T14:34:33.638Z,47.80
2019-05-01T14:37:01.896Z,48.40
2019-05-01T14:39:30.144Z,48.90
2019-05-01T14:41:58.415Z,48.70
2019-05-01T14:44:36.236Z,48.30
2019-05-01T14:46:56.652Z,50.00
2019-05-01T14:49:24.980Z,49.10
2019-05-01T14:51:53.249Z,49.60
2019-05-01T14:54:21.500Z,49.00
2019-05-01T14:56:49.766Z,50.10
2019-05-01T14:59:18.014Z,50.50
2019-05-01T15:01:47.278Z,51.70
2019-05-01T15:04:15.910Z,50.50
2019-05-01T15:06:44.175Z,49.50
2019-05-01T15:09:12.443Z,49.20
2019-05-01T15:11:41.881Z,49.90
2019-05-01T15:17:09.798Z,50.00
2019-05-01T15:19:42.485Z,48.50
2019-05-01T15:22:10.771Z,49.40
2019-05-01T15:24:39.033Z,50.90
2019-05-01T15:27:07.650Z,50.10
2019-05-01T15:29:35.952Z,51.70
2019-05-01T15:32:04.221Z,51.30
2019-05-01T15:34:32.548Z,50.10
2019-05-01T15:37:01.361Z,50.00
2019-05-01T15:39:31.248Z,48.70
2019-05-01T15:42:19.361Z,48.80
2019-05-01T15:44:47.848Z,49.90
2019-05-01T15:47:16.357Z,49.80
2019-05-01T15:49:44.617Z,50.30
2019-05-01T15:52:12.873Z,49.60
2019-05-01T15:54:41.125Z,49.90
2019-05-01T15:57:09.389Z,49.90
2019-05-01T15:59:37.648Z,50.00
2019-05-01T16:02:05.914Z,50.60
2019-05-01T16:04:34.212Z,50.40
2019-05-01T16:07:02.515Z,50.70
2019-05-01T16:09:30.777Z,50.10
2019-05-01T16:12:15.900Z,49.20
2019-05-01T16:14:45.036Z,49.10
2019-05-01T16:17:13.297Z,49.60
2019-05-01T16:19:41.554Z,49.90
2019-05-01T16:22:09.809Z,49.90
2019-05-01T16:24:38.074Z,49.80
2019-05-01T16:27:06.340Z,50.60
2019-05-01T16:29:34.615Z,51.10
2019-05-01T16:32:02.870Z,51.30
2019-05-01T16:34:31.132Z,51.60
2019-05-01T16:36:59.389Z,52.00
2019-05-01T16:39:46.526Z,51.40
2019-05-01T16:42:14.845Z,51.60
2019-05-01T16:44:43.109Z,51.00
2019-05-01T16:47:11.364Z,52.00
2019-05-01T16:49:39.624Z,51.50
2019-05-01T16:52:07.949Z,50.90
2019-05-01T16:54:36.241Z,51.30
2019-05-01T16:57:04.495Z,51.90
2019-05-01T16:59:52.841Z,51.90
2019-05-01T17:02:28.412Z,51.20
2019-05-01T17:04:58.312Z,52.20
2019-05-01T17:07:43.451Z,52.30
2019-05-01T17:10:16.153Z,52.30
2019-05-01T17:12:51.797Z,52.70
2019-05-01T17:15:27.897Z,54.10
2019-05-01T17:17:56.151Z,53.70
2019-05-01T17:20:24.893Z,53.40
2019-05-01T17:22:53.157Z,53.60
2019-05-01T17:25:21.584Z,53.70
2019-05-01T17:27:49.881Z,53.10
2019-05-01T17:30:25.696Z,53.80
2019-05-01T17:32:54.188Z,53.50
2019-05-01T17:35:22.459Z,53.70
2019-05-01T17:37:50.713Z,53.70
2019-05-01T17:40:19.224Z,54.00
2019-05-01T17:42:47.487Z,54.20
2019-05-01T17:45:15.757Z,55.00
2019-05-01T17:47:44.017Z,55.00
2019-05-01T17:50:16.348Z,55.50
2019-05-01T17:52:42.267Z,55.80
2019-05-01T17:55:10.538Z,56.70
2019-05-01T17:57:38.855Z,57.50
2019-05-01T18:00:25.831Z,58.10
2019-05-01T18:02:55.736Z,59.10
2019-05-01T18:05:41.835Z,59.40
2019-05-01T18:08:10.465Z,59.30
2019-05-01T18:10:39.776Z,59.80
2019-05-01T18:13:08.384Z,60.50
2019-05-01T18:15:36.652Z,61.10
2019-05-01T18:18:04.935Z,61.30
2019-05-01T18:20:33.248Z,61.70
2019-05-01T18:25:57.668Z,61.80
2019-05-01T18:28:45.162Z,62.40
2019-05-01T18:34:04.474Z,63.80
2019-05-01T18:36:34.652Z,64.10
2019-05-01T18:39:16.690Z,64.90
2019-05-01T18:41:45.088Z,65.50
2019-05-01T18:44:13.380Z,65.70
2019-05-01T18:46:41.710Z,66.20
2019-05-01T18:49:09.970Z,66.10
2019-05-01T18:51:40.790Z,66.20
2019-05-01T18:54:08.216Z,66.50
2019-05-01T18:56:38.222Z,66.90
2019-05-01T18:59:06.503Z,67.40
2019-05-01T19:01:34.761Z,67.70
2019-05-01T19:04:03.089Z,67.80
2019-05-01T19:06:40.937Z,68.10
2019-05-01T19:09:13.983Z,68.50
2019-05-01T19:11:31.519Z,69.00
2019-05-01T19:13:59.766Z,69.50
2019-05-01T19:16:28.080Z,69.70
2019-05-01T19:18:56.373Z,69.80
2019-05-01T19:21:26.298Z,70.20
2019-05-01T19:23:54.703Z,70.60
2019-05-01T19:26:23.105Z,71.10
2019-05-01T19:28:51.518Z,71.50
2019-05-01T19:31:21.376Z,71.50
2019-05-01T19:33:49.939Z,71.90
2019-05-01T19:36:18.241Z,72.30
2019-05-01T19:38:46.492Z,72.30
2019-05-01T19:41:14.758Z,72.60
2019-05-01T19:43:43.013Z,73.10
2019-05-01T19:46:11.319Z,73.50
2019-05-01T19:48:39.641Z,73.90
2019-05-01T19:51:07.980Z,74.40
2019-05-01T19:53:36.266Z,74.60
2019-05-01T19:56:04.549Z,74.90
2019-05-01T19:58:32.880Z,75.30
2019-05-01T20:01:04.257Z,75.70
2019-05-01T20:03:36.295Z,76.30
2019-05-01T20:06:05.615Z,76.70
2019-05-01T20:08:31.279Z,76.80
2019-05-01T20:10:59.552Z,77.00
2019-05-01T20:13:27.841Z,77.00
2019-05-01T20:15:56.105Z,76.90
2019-05-01T20:18:24.371Z,77.50
2019-05-01T20:20:52.637Z,77.30
2019-05-01T20:23:20.889Z,77.50
2019-05-01T20:25:51.069Z,78.50
2019-05-01T20:28:20.047Z,79.10
2019-05-01T20:30:49.636Z,79.20
2019-05-01T20:33:18.149Z,79.70
2019-05-01T20:35:46.403Z,79.70
2019-05-01T20:38:14.667Z,79.90
2019-05-01T20:40:42.929Z,80.40
2019-05-01T20:43:11.197Z,80.50
2019-05-01T20:45:39.674Z,80.30
2019-05-01T20:48:08.154Z,80.50
2019-05-01T20:50:36.413Z,80.70
2019-05-01T20:53:04.669Z,80.70
2019-05-01T20:55:32.933Z,81.10
2019-05-01T20:58:08.552Z,81.40
2019-05-01T21:00:36.885Z,81.30
2019-05-01T21:03:05.133Z,81.30
2019-05-01T21:05:35.029Z,81.80
2019-05-01T21:10:50.575Z,82.30
2019-05-01T21:13:17.648Z,81.90
2019-05-01T21:15:47.410Z,82.10
2019-05-01T21:18:15.951Z,82.30
2019-05-01T21:20:44.213Z,82.40
2019-05-01T21:23:14.266Z,82.70
2019-05-01T21:25:43.884Z,82.90
2019-05-01T21:28:14.130Z,83.20
2019-05-01T21:30:43.883Z,83.50
2019-05-01T21:33:13.841Z,83.50
2019-05-01T21:35:44.346Z,83.90
2019-05-01T21:38:12.352Z,83.70
2019-05-01T21:40:41.273Z,84.30
2019-05-01T21:43:10.588Z,84.30
2019-05-01T21:45:38.842Z,84.40
2019-05-01T21:48:07.101Z,84.90
2019-05-01T21:50:35.362Z,84.50
2019-05-01T21:53:06.791Z,84.50
2019-05-01T21:55:33.597Z,84.50
2019-05-01T21:58:01.863Z,85.10
2019-05-01T22:00:31.761Z,85.20
2019-05-01T22:03:00.055Z,85.20
2019-05-01T22:05:28.365Z,85.50
2019-05-01T22:07:58.778Z,85.50
2019-05-01T22:10:28.420Z,86.00
2019-05-01T22:12:56.600Z,86.50
2019-05-01T22:15:26.498Z,85.90
2019-05-01T22:20:34.416Z,86.00
2019-05-01T22:23:04.324Z,86.30
2019-05-01T22:25:37.161Z,86.60
2019-05-01T22:31:21.821Z,87.10
2019-05-01T22:33:50.985Z,87.40
2019-05-01T22:36:19.234Z,87.90
2019-05-01T22:38:47.504Z,88.40
2019-05-01T22:41:15.759Z,88.80
2019-05-01T22:43:44.022Z,89.00
2019-05-01T22:46:13.912Z,88.60
2019-05-01T22:48:42.164Z,88.70
2019-05-01T22:51:12.056Z,88.60
2019-05-01T22:53:40.320Z,88.70
2019-05-01T22:56:08.584Z,88.80
2019-05-01T22:58:36.840Z,88.90
2019-05-01T23:01:05.969Z,89.40
2019-05-01T23:03:40.843Z,89.60
2019-05-01T23:06:06.315Z,90.40
2019-05-01T23:08:35.832Z,90.40
2019-05-01T23:11:04.073Z,90.50
2019-05-01T23:13:32.336Z,90.40
2019-05-01T23:16:00.661Z,91.00
2019-05-01T23:18:28.917Z,91.50
2019-05-01T23:20:57.164Z,92.00
2019-05-01T23:23:25.423Z,91.00
2019-05-01T23:25:53.673Z,90.80
2019-05-01T23:28:21.944Z,91.30
2019-05-01T23:30:50.257Z,91.60
2019-05-01T23:33:18.516Z,92.10
2019-05-01T23:35:46.764Z,92.20
2019-05-01T23:38:15.020Z,92.10
2019-05-01T23:40:46.209Z,92.40
2019-05-01T23:43:13.239Z,92.80
2019-05-01T23:45:41.500Z,92.30
2019-05-01T23:48:09.748Z,92.70
2019-05-01T23:50:38.004Z,92.50
2019-05-01T23:53:09.114Z,93.30
2019-05-01T23:55:36.236Z,93.90
2019-05-01T23:58:04.561Z,93.20
